Time;durP1;ratioP1;P1;durP2;ratioP2;P2;SDS_P1;SDS_P2;PMS_P1;PMS_P2;Temp;Humidity;BMP_temperature;BMP_pressure;BME280_temperature;BME280_humidity;BME280_pressure;Samples;Min_cycle;Max_cycle;Signal;HPM_P1;HPM_P2
2023/09/28 00:02:21;;;;;;;6.60;3.80;;;;;;;19.63;65.12;101230.34;5092135;28;20431;-67
2023/09/28 00:04:49;;;;;;;5.55;3.45;;;;;;;19.65;65.13;101227.19;5096032;28;20017;-67
2023/09/28 00:07:14;;;;;;;6.35;3.90;;;;;;;19.65;65.10;101230.03;5091481;28;20139;-67
2023/09/28 00:09:40;;;;;;;4.90;3.40;;;;;;;19.64;65.09;101229.19;5098521;28;20439;-67
2023/09/28 00:12:05;;;;;;;5.05;3.60;;;;;;;19.63;65.19;101235.97;5103574;28;20028;-67
2023/09/28 00:14:31;;;;;;;5.75;3.50;;;;;;;19.63;65.02;101229.50;5112203;28;20035;-67
2023/09/28 00:16:57;;;;;;;5.60;3.45;;;;;;;19.67;65.02;101230.56;5112011;28;20061;-67
2023/09/28 00:19:24;;;;;;;5.63;3.63;;;;;;;19.65;65.02;101239.34;5111300;28;20093;-67
2023/09/28 00:21:50;;;;;;;7.13;3.42;;;;;;;19.67;64.86;101230.56;5103714;28;20088;-67
2023/09/28 00:24:16;;;;;;;5.75;3.72;;;;;;;19.65;64.88;101244.97;5091109;28;20044;-67
2023/09/28 00:26:42;;;;;;;4.15;3.28;;;;;;;19.68;64.88;101246.31;5101395;28;20437;-68
2023/09/28 00:29:07;;;;;;;5.53;3.30;;;;;;;19.68;65.19;101244.31;5091234;28;20020;-67
2023/09/28 00:31:32;;;;;;;5.10;3.33;;;;;;;19.67;65.16;101253.94;5090594;28;20099;-67
2023/09/28 00:33:59;;;;;;;5.90;3.45;;;;;;;19.68;65.15;101252.78;5096831;28;20142;-67
2023/09/28 00:36:25;;;;;;;4.13;3.42;;;;;;;19.68;65.20;101249.13;5093111;28;20028;-67
2023/09/28 00:38:50;;;;;;;5.32;3.22;;;;;;;19.64;65.25;101251.72;5100875;28;20046;-67
2023/09/28 00:41:16;;;;;;;4.70;3.42;;;;;;;19.63;65.40;101257.66;5106027;28;20026;-67
2023/09/28 00:43:42;;;;;;;6.13;3.80;;;;;;;19.67;65.21;101261.53;5104315;28;20027;-67
2023/09/28 00:46:11;;;;;;;6.10;3.47;;;;;;;19.62;65.55;101262.47;5090679;28;20107;-67
2023/09/28 00:48:47;;;;;;;4.70;3.72;;;;;;;19.63;65.54;101275.38;5091183;28;20467;-67
2023/09/28 00:51:12;;;;;;;7.25;3.55;;;;;;;19.63;65.33;101269.75;5107428;28;20028;-67
2023/09/28 00:53:38;;;;;;;4.40;3.22;;;;;;;19.62;65.47;101265.28;5106778;28;20074;-67
2023/09/28 00:56:06;;;;;;;4.22;3.50;;;;;;;19.62;65.63;101270.91;5111613;28;20121;-67
2023/09/28 00:58:32;;;;;;;5.90;3.65;;;;;;;19.54;65.72;101254.66;5111655;28;20058;-67
2023/09/28 01:01:00;;;;;;;4.35;3.50;;;;;;;19.55;65.80;101253.53;5109941;28;20522;-67
2023/09/28 01:03:27;;;;;;;6.20;3.33;;;;;;;19.56;65.80;101244.75;5109579;28;20027;-67
2023/09/28 01:05:52;;;;;;;7.63;3.65;;;;;;;19.54;65.81;101255.50;5110542;28;20510;-67
2023/09/28 01:08:18;;;;;;;3.95;3.10;;;;;;;19.55;65.71;101245.06;5110634;28;20115;-67
2023/09/28 01:10:44;;;;;;;4.90;3.25;;;;;;;19.55;65.83;101259.16;5099603;28;20044;-67
2023/09/28 01:13:12;;;;;;;5.95;3.25;;;;;;;19.56;65.74;101264.47;5091061;28;20028;-67
2023/09/28 01:15:47;;;;;;;5.53;3.38;;;;;;;19.54;65.83;101263.13;5089983;28;20039;-67
2023/09/28 01:18:15;;;;;;;6.20;3.42;;;;;;;19.54;65.71;101265.94;5091997;28;20505;-67
2023/09/28 01:20:43;;;;;;;6.68;3.83;;;;;;;19.54;66.06;101272.41;5099488;28;20038;-67
2023/09/28 01:23:09;;;;;;;5.50;3.65;;;;;;;19.55;66.01;101264.78;5114519;28;20089;-67
2023/09/28 01:25:37;;;;;;;8.00;3.75;;;;;;;19.51;66.00;101267.38;5109672;28;20036;-67
2023/09/28 01:28:03;;;;;;;5.57;3.28;;;;;;;19.51;66.30;101267.38;5096403;28;20475;-67
2023/09/28 01:30:29;;;;;;;5.47;3.22;;;;;;;19.50;66.45;101265.69;5104398;28;20065;-67
2023/09/28 01:32:54;;;;;;;6.10;3.33;;;;;;;19.52;66.28;101259.75;5099315;28;20063;-67
2023/09/28 01:35:20;;;;;;;5.40;3.80;;;;;;;19.52;66.17;101271.84;5095078;28;20483;-67
2023/09/28 01:37:48;;;;;;;5.63;3.22;;;;;;;19.47;66.36;101254.19;5094899;28;20142;-67
2023/09/28 01:40:14;;;;;;;5.38;3.45;;;;;;;19.46;66.45;101255.34;5096621;28;20027;-67
2023/09/28 01:42:40;;;;;;;5.28;3.33;;;;;;;19.44;66.65;101258.44;5105544;28;20039;-67
2023/09/28 01:45:06;;;;;;;5.43;3.33;;;;;;;19.43;66.63;101276.50;5094747;28;20052;-67
2023/09/28 01:47:34;;;;;;;8.20;3.85;;;;;;;19.41;66.87;101281.56;5094525;28;20038;-67
2023/09/28 01:50:00;;;;;;;5.72;3.50;;;;;;;19.37;66.97;101286.13;5094219;28;20024;-67
2023/09/28 01:52:26;;;;;;;5.25;3.47;;;;;;;19.36;67.09;101273.19;5094085;28;20028;-67
2023/09/28 01:54:52;;;;;;;4.00;3.20;;;;;;;19.33;67.29;101285.88;5095983;28;20026;-67
2023/09/28 01:57:17;;;;;;;6.07;3.30;;;;;;;19.32;67.36;101278.59;5092152;28;20448;-67
2023/09/28 01:59:43;;;;;;;4.75;3.60;;;;;;;19.36;67.32;101287.28;5100005;28;20539;-67
2023/09/28 02:02:08;;;;;;;5.13;3.83;;;;;;;19.32;67.26;101286.19;5115160;28;20020;-68
2023/09/28 02:04:39;;;;;;;7.13;4.00;;;;;;;19.31;67.40;101288.19;5114539;28;20023;-67
2023/09/28 02:07:04;;;;;;;5.05;3.90;;;;;;;19.28;67.55;101296.38;5114831;28;20027;-67
2023/09/28 02:09:30;;;;;;;5.95;3.45;;;;;;;19.28;67.56;101305.66;5100629;28;20051;-68
2023/09/28 02:11:56;;;;;;;7.25;4.05;;;;;;;19.24;67.85;101298.13;5093604;28;20039;-68
2023/09/28 02:14:22;;;;;;;5.30;4.00;;;;;;;19.23;67.66;101304.91;5106172;28;20032;-68
2023/09/28 02:16:50;;;;;;;5.75;3.58;;;;;;;19.25;67.75;101302.63;5095717;28;20389;-67
2023/09/28 02:19:15;;;;;;;9.57;4.35;;;;;;;19.20;67.81;101311.97;5094121;28;20032;-68
2023/09/28 02:21:44;;;;;;;6.00;3.70;;;;;;;19.18;68.05;101302.13;5093244;28;20040;-67
2023/09/28 02:24:10;;;;;;;7.15;3.63;;;;;;;19.19;68.10;101299.03;5092730;28;20129;-68
2023/09/28 02:26:35;;;;;;;5.07;3.55;;;;;;;19.19;67.97;101304.66;5109318;28;20799;-67
2023/09/28 02:29:02;;;;;;;5.72;3.72;;;;;;;19.15;68.22;101297.13;5114327;28;20024;-67
2023/09/28 02:31:28;;;;;;;8.70;4.18;;;;;;;19.12;68.27;101304.19;5108092;28;20081;-67
2023/09/28 02:33:54;;;;;;;5.70;3.78;;;;;;;19.09;68.57;101305.59;5105996;28;20127;-67
2023/09/28 02:36:20;;;;;;;5.85;4.15;;;;;;;19.07;68.66;101295.81;5114040;28;20027;-67
2023/09/28 02:38:46;;;;;;;4.50;3.65;;;;;;;19.04;68.50;101302.88;5113210;28;20520;-68
2023/09/28 02:41:18;;;;;;;6.88;4.30;;;;;;;19.02;68.76;101310.78;5112732;28;20015;-68
2023/09/28 02:43:44;;;;;;;9.02;4.38;;;;;;;19.05;68.54;101310.16;5103559;28;20061;-67
2023/09/28 02:46:09;;;;;;;6.35;3.97;;;;;;;19.03;68.61;101311.63;5109900;28;20032;-67
2023/09/28 02:48:37;;;;;;;6.82;3.88;;;;;;;19.01;68.82;101306.28;5110994;28;20383;-67
2023/09/28 02:51:13;;;;;;;5.00;4.15;;;;;;;18.98;69.03;101306.03;5095098;28;20102;-67
2023/09/28 02:53:38;;;;;;;7.60;4.10;;;;;;;18.94;69.12;101324.63;5092216;28;20016;-67
2023/09/28 02:56:03;;;;;;;5.43;3.97;;;;;;;18.93;69.13;101315.38;5092745;28;20447;-68
2023/09/28 02:58:29;;;;;;;6.43;4.50;;;;;;;18.92;69.06;101312.88;5097288;28;20077;-67
2023/09/28 03:00:56;;;;;;;7.63;4.35;;;;;;;18.89;69.43;101317.09;5103574;28;20020;-67
2023/09/28 03:03:23;;;;;;;8.60;4.70;;;;;;;18.87;69.63;101316.56;5093143;28;20047;-67
2023/09/28 03:05:49;;;;;;;9.05;4.05;;;;;;;18.91;69.40;101320.47;5109882;28;20020;-67
2023/09/28 03:08:14;;;;;;;6.75;4.13;;;;;;;18.85;69.61;101322.47;5106027;28;20028;-68
2023/09/28 03:10:44;;;;;;;6.75;4.07;;;;;;;18.86;69.71;101328.94;5104468;28;20038;-67
2023/09/28 03:13:12;;;;;;;7.63;4.35;;;;;;;18.78;69.80;101329.59;5103866;28;20379;-68
2023/09/28 03:15:43;;;;;;;9.80;4.32;;;;;;;18.78;69.89;101332.41;5111215;28;20395;-67
2023/09/28 03:18:09;;;;;;;6.78;4.55;;;;;;;18.79;70.21;101339.72;5100371;28;20106;-67
2023/09/28 03:20:38;;;;;;;6.45;4.20;;;;;;;18.78;70.24;101330.44;5107425;28;20028;-67
2023/09/28 03:23:04;;;;;;;5.78;4.55;;;;;;;18.73;70.37;101341.72;5105321;28;20536;-67
2023/09/28 03:25:30;;;;;;;7.72;4.32;;;;;;;18.74;70.24;101343.41;5096425;28;20035;-67
2023/09/28 03:27:56;;;;;;;6.43;4.38;;;;;;;18.74;70.32;101342.56;5092032;28;20085;-67
2023/09/28 03:30:26;;;;;;;6.95;4.20;;;;;;;18.77;70.38;101347.59;5105788;28;20093;-67
2023/09/28 03:32:59;;;;;;;9.13;4.90;;;;;;;18.75;70.37;101344.28;5092479;28;20027;-67
2023/09/28 03:35:26;;;;;;;7.20;4.30;;;;;;;18.70;70.71;101347.94;5092016;28;20118;-67
2023/09/28 03:37:54;;;;;;;6.30;4.72;;;;;;;18.65;70.67;101354.44;5096158;28;20467;-67
2023/09/28 03:40:20;;;;;;;7.07;4.22;;;;;;;18.69;70.62;101360.28;5098739;28;20463;-67
2023/09/28 03:42:50;;;;;;;7.85;4.55;;;;;;;18.65;70.71;101362.88;5103938;28;20028;-67
2023/09/28 03:45:21;;;;;;;6.70;4.68;;;;;;;18.65;70.74;101368.47;5097718;28;20038;-67
2023/09/28 03:47:48;;;;;;;5.35;4.28;;;;;;;18.57;70.95;101373.91;5110402;28;20031;-67
2023/09/28 03:50:14;;;;;;;6.07;4.60;;;;;;;18.61;70.75;101380.63;5103791;28;20106;-67
2023/09/28 03:52:41;;;;;;;5.47;4.32;;;;;;;18.58;71.06;101389.63;5095528;28;20527;-67
2023/09/28 03:55:10;;;;;;;7.68;4.80;;;;;;;18.57;71.15;101377.56;5109308;28;20123;-67
2023/09/28 03:57:36;;;;;;;6.22;5.13;;;;;;;18.62;70.99;101371.03;5109597;28;20076;-67
2023/09/28 04:00:03;;;;;;;8.55;4.82;;;;;;;18.57;71.19;101371.94;5104744;28;20421;-67
2023/09/28 04:02:28;;;;;;;5.88;4.50;;;;;;;18.56;71.37;101380.69;5091311;28;20032;-67
2023/09/28 04:04:54;;;;;;;5.97;4.10;;;;;;;18.56;71.36;101386.28;5092232;28;20028;-67
2023/09/28 04:07:19;;;;;;;6.35;4.88;;;;;;;18.59;71.11;101385.72;5091531;28;20100;-67
2023/09/28 04:09:45;;;;;;;7.80;4.93;;;;;;;18.52;71.45;101385.22;5091500;28;20020;-67
2023/09/28 04:12:12;;;;;;;7.53;4.80;;;;;;;18.51;71.76;101397.56;5103682;28;20023;-67
2023/09/28 04:14:37;;;;;;;9.45;4.85;;;;;;;18.52;71.62;101391.66;5112258;28;20024;-67
2023/09/28 04:17:03;;;;;;;8.55;4.75;;;;;;;18.49;71.68;101388.59;5107543;28;20126;-67
2023/09/28 04:19:28;;;;;;;6.22;4.50;;;;;;;18.47;71.72;101377.66;5112258;28;20019;-67
2023/09/28 04:21:54;;;;;;;7.20;4.70;;;;;;;18.42;71.72;101385.28;5112088;28;20079;-67
2023/09/28 04:24:19;;;;;;;7.45;4.88;;;;;;;18.42;71.99;101385.28;5110313;28;20055;-67
2023/09/28 04:26:45;;;;;;;6.95;4.55;;;;;;;18.43;71.70;101378.50;5110837;28;20454;-67
2023/09/28 04:29:10;;;;;;;6.47;4.80;;;;;;;18.37;72.07;101384.19;5112077;28;20036;-67
2023/09/28 04:31:40;;;;;;;7.03;4.95;;;;;;;18.33;72.29;101388.72;5108479;28;20470;-67
2023/09/28 04:34:07;;;;;;;7.18;5.15;;;;;;;18.28;72.34;101387.91;5096459;28;20471;-67
2023/09/28 04:36:33;;;;;;;6.68;5.45;;;;;;;18.27;72.26;101398.28;5091455;28;20019;-67
2023/09/28 04:39:01;;;;;;;8.35;5.15;;;;;;;18.28;72.32;101396.34;5090777;28;20020;-67
2023/09/28 04:41:26;;;;;;;6.07;5.10;;;;;;;18.20;72.47;101394.16;5091928;28;20459;-67
2023/09/28 04:43:52;;;;;;;8.57;5.13;;;;;;;18.24;72.51;101396.09;5091414;28;20087;-68
2023/09/28 04:46:17;;;;;;;9.05;5.38;;;;;;;18.19;72.47;101401.72;5090336;28;20020;-67
2023/09/28 04:48:45;;;;;;;7.93;5.55;;;;;;;18.22;72.62;101415.19;5110408;28;20104;-67
2023/09/28 04:51:11;;;;;;;7.63;5.30;;;;;;;18.26;72.41;101409.84;5107712;28;20055;-67
2023/09/28 04:53:37;;;;;;;9.23;4.95;;;;;;;18.22;72.66;101408.75;5110972;28;20023;-67
2023/09/28 04:56:12;;;;;;;7.22;5.05;;;;;;;18.19;72.80;101406.50;5111119;28;20103;-67
2023/09/28 04:58:38;;;;;;;7.25;4.47;;;;;;;18.17;72.77;101398.38;5109818;28;20040;-67
2023/09/28 05:01:04;;;;;;;7.68;5.72;;;;;;;18.10;72.64;101412.75;5108000;28;20431;-67
2023/09/28 05:03:30;;;;;;;10.95;5.22;;;;;;;18.15;72.37;101431.53;5094678;28;20134;-67
2023/09/28 05:05:55;;;;;;;7.05;4.88;;;;;;;18.11;72.50;101436.06;5110785;28;20118;-67
2023/09/28 05:08:21;;;;;;;6.68;4.40;;;;;;;18.15;72.13;101448.38;5109515;28;20027;-67
2023/09/28 05:10:46;;;;;;;10.25;4.60;;;;;;;18.15;72.15;101445.59;5111245;28;20020;-68
2023/09/28 05:13:12;;;;;;;6.68;4.63;;;;;;;18.12;71.68;101447.03;5110709;28;20066;-67
2023/09/28 05:15:38;;;;;;;6.80;4.50;;;;;;;18.16;71.60;101452.91;5103938;28;20024;-67
2023/09/28 05:18:03;;;;;;;8.35;4.43;;;;;;;18.13;71.76;101445.88;5091289;28;20062;-67
2023/09/28 05:20:29;;;;;;;9.05;4.55;;;;;;;18.10;71.75;101457.69;5096799;28;20027;-67
2023/09/28 05:22:54;;;;;;;8.60;5.13;;;;;;;18.06;71.56;101455.75;5101160;28;20038;-67
2023/09/28 05:25:20;;;;;;;7.68;4.93;;;;;;;18.05;71.66;101462.50;5091940;28;20144;-67
2023/09/28 05:27:45;;;;;;;10.77;4.90;;;;;;;18.05;71.59;101465.31;5089740;28;20064;-67
2023/09/28 05:30:12;;;;;;;9.93;4.75;;;;;;;18.04;71.46;101475.72;5090743;28;20422;-67
2023/09/28 05:32:40;;;;;;;9.02;4.57;;;;;;;17.95;71.54;101482.22;5097176;28;20405;-67
2023/09/28 05:35:06;;;;;;;9.15;4.32;;;;;;;18.00;71.40;101476.56;5107647;28;20031;-67
2023/09/28 05:37:32;;;;;;;7.50;5.05;;;;;;;18.00;71.29;101474.63;5094238;28;20032;-67
2023/09/28 05:39:59;;;;;;;10.75;4.63;;;;;;;17.96;71.04;101490.38;5090423;28;20379;-61
2023/09/28 05:42:24;;;;;;;7.43;4.55;;;;;;;17.94;71.26;101480.53;5087579;28;20062;-69
2023/09/28 05:44:50;;;;;;;7.43;4.75;;;;;;;17.87;71.34;101486.44;5091988;28;20052;-68
2023/09/28 05:47:15;;;;;;;9.13;4.38;;;;;;;17.80;71.47;101488.72;5089872;28;20444;-67
2023/09/28 05:49:42;;;;;;;10.18;4.63;;;;;;;17.88;71.31;101493.75;5089137;28;20471;-67
2023/09/28 05:52:07;;;;;;;9.68;4.63;;;;;;;17.83;71.49;101491.78;5094205;28;20043;-67
2023/09/28 05:54:32;;;;;;;10.70;4.47;;;;;;;17.77;71.24;101492.97;5098836;28;20015;-67
2023/09/28 05:56:58;;;;;;;10.32;5.18;;;;;;;17.78;71.60;101503.06;5109865;28;20110;-68
2023/09/28 05:59:23;;;;;;;9.48;4.85;;;;;;;17.74;71.62;101507.53;5103886;28;20467;-69
2023/09/28 06:01:48;;;;;;;12.15;4.80;;;;;;;17.74;71.74;101510.34;5089941;28;20039;-68
2023/09/28 06:04:14;;;;;;;10.50;4.13;;;;;;;17.77;71.51;101517.41;5096995;28;20028;-67
2023/09/28 06:06:42;;;;;;;9.55;4.45;;;;;;;17.76;71.71;101519.34;5101448;28;20031;-70
2023/09/28 06:09:07;;;;;;;8.65;4.78;;;;;;;17.74;71.49;101521.56;5092238;28;20024;-68
2023/09/28 06:11:32;;;;;;;9.95;4.90;;;;;;;17.79;71.28;101506.69;5095916;28;20024;-68
2023/09/28 06:13:58;;;;;;;12.48;4.50;;;;;;;17.73;71.68;101507.81;5098731;28;20473;-68
2023/09/28 06:16:25;;;;;;;7.25;3.88;;;;;;;17.74;71.59;101499.09;5113158;28;20031;-69
2023/09/28 06:18:50;;;;;;;10.77;4.55;;;;;;;17.67;71.71;101509.78;5110193;28;20039;-68
2023/09/28 06:21:22;;;;;;;9.65;3.92;;;;;;;17.67;71.66;101509.78;5090905;28;20075;-68
2023/09/28 06:23:48;;;;;;;10.48;4.57;;;;;;;17.72;71.39;101517.34;5092840;28;20044;-68
2023/09/28 06:26:13;;;;;;;8.85;4.65;;;;;;;17.69;71.62;101524.41;5092462;28;20035;-68
2023/09/28 06:28:41;;;;;;;8.45;4.38;;;;;;;17.73;71.40;101533.09;5096091;28;20025;-69
2023/09/28 06:31:07;;;;;;;11.98;4.43;;;;;;;17.71;71.19;101533.38;5103593;28;20542;-67
2023/09/28 06:33:32;;;;;;;12.07;4.60;;;;;;;17.67;71.35;101547.13;5099140;28;20048;-68
2023/09/28 06:35:57;;;;;;;12.95;4.45;;;;;;;17.72;70.91;101551.03;5094092;28;20463;-67
2023/09/28 06:38:23;;;;;;;11.38;4.40;;;;;;;17.70;71.00;101551.34;5098299;28;20039;-67
2023/09/28 06:40:48;;;;;;;15.23;4.82;;;;;;;17.72;71.11;101540.66;5092331;28;20039;-68
2023/09/28 06:43:15;;;;;;;12.98;4.03;;;;;;;17.71;70.94;101543.75;5090565;28;20052;-68
2023/09/28 06:45:41;;;;;;;14.07;4.90;;;;;;;17.73;70.70;101536.75;5098285;28;20035;-68
2023/09/28 06:48:07;;;;;;;11.95;4.47;;;;;;;17.78;70.65;101536.75;5092314;28;20093;-69
2023/09/28 06:50:34;;;;;;;11.48;4.05;;;;;;;17.74;70.43;101543.19;5099435;28;20104;-66
2023/09/28 06:53:00;;;;;;;16.17;4.65;;;;;;;17.74;70.73;101563.69;5091719;28;20037;-70
2023/09/28 06:55:25;;;;;;;12.18;4.32;;;;;;;17.78;70.43;101562.03;5092830;28;20028;-69
2023/09/28 06:57:51;;;;;;;12.82;4.40;;;;;;;17.78;70.25;101576.06;5091713;28;20089;-70
2023/09/28 07:00:17;;;;;;;11.77;4.07;;;;;;;17.80;70.21;101570.16;5109843;28;20020;-68
2023/09/28 07:02:47;;;;;;;14.68;3.80;;;;;;;17.84;70.07;101568.44;5093086;28;20459;-68
2023/09/28 07:05:18;;;;;;;15.65;4.32;;;;;;;17.88;69.80;101578.00;5105244;28;20069;-71
2023/09/28 07:07:45;;;;;;;15.43;4.07;;;;;;;17.85;69.57;101589.81;5100445;28;20038;-68
2023/09/28 07:10:11;;;;;;;14.75;4.15;;;;;;;17.94;69.99;101581.66;5093547;28;20367;-68
2023/09/28 07:12:36;;;;;;;14.75;4.25;;;;;;;17.96;69.61;101580.25;5095058;28;20472;-67
2023/09/28 07:15:03;;;;;;;14.45;3.90;;;;;;;17.98;69.40;101574.34;5095854;28;20071;-69
2023/09/28 07:17:29;;;;;;;16.40;4.28;;;;;;;17.97;69.67;101567.03;5095045;28;20035;-68
2023/09/28 07:19:55;;;;;;;17.17;4.20;;;;;;;18.00;69.57;101572.94;5094112;28;20100;-68
2023/09/28 07:22:21;;;;;;;14.45;4.10;;;;;;;18.03;69.69;101577.13;5091612;28;20039;-68
2023/09/28 07:24:46;;;;;;;17.17;4.32;;;;;;;18.04;69.73;101570.38;5090797;28;20461;-68
2023/09/28 07:27:14;;;;;;;18.63;4.50;;;;;;;18.08;69.41;101566.72;5108451;28;20553;-67
2023/09/28 07:29:39;;;;;;;19.75;4.95;;;;;;;18.09;69.34;101568.41;5094425;28;20036;-66
2023/09/28 07:32:07;;;;;;;19.00;4.35;;;;;;;18.10;69.47;101575.69;5097362;28;20065;-66
2023/09/28 07:34:34;;;;;;;12.57;4.05;;;;;;;18.10;69.40;101589.72;5098929;28;20032;-68
2023/09/28 07:36:59;;;;;;;19.80;4.18;;;;;;;18.07;69.91;101597.88;5093097;28;20032;-66
2023/09/28 07:39:27;;;;;;;17.08;4.53;;;;;;;18.15;69.58;101608.53;5106149;28;20081;-66
2023/09/28 07:41:53;;;;;;;18.20;4.22;;;;;;;18.20;69.57;101596.47;5096934;28;20020;-66
2023/09/28 07:44:19;;;;;;;16.15;4.20;;;;;;;18.23;69.48;101598.69;5109617;28;20038;-67
2023/09/28 07:46:45;;;;;;;18.25;4.35;;;;;;;18.32;69.27;101611.03;5104622;28;20039;-69
2023/09/28 07:49:12;;;;;;;20.27;4.32;;;;;;;18.39;69.43;101612.41;5091282;28;20057;-69
2023/09/28 07:51:38;;;;;;;16.95;4.07;;;;;;;18.48;68.82;101603.38;5106604;28;20042;-68
2023/09/28 07:54:13;;;;;;;17.48;3.97;;;;;;;18.55;68.34;101609.50;5104195;28;20028;-66
2023/09/28 07:56:38;;;;;;;23.08;4.35;;;;;;;18.60;68.19;101609.50;5091991;28;20051;-68
2023/09/28 07:59:04;;;;;;;22.92;4.40;;;;;;;18.65;67.91;101617.91;5094793;28;20027;-67
2023/09/28 08:01:29;;;;;;;17.23;4.22;;;;;;;18.73;67.70;101608.88;5093817;28;20034;-68
2023/09/28 08:03:55;;;;;;;20.08;4.18;;;;;;;18.82;67.48;101615.59;5094474;28;20042;-68
2023/09/28 08:06:20;;;;;;;19.00;4.80;;;;;;;18.93;67.22;101627.63;5095596;28;20020;-68
2023/09/28 08:08:46;;;;;;;21.75;4.47;;;;;;;19.00;66.85;101633.75;5096532;28;20097;-69
2023/09/28 08:11:12;;;;;;;17.90;4.57;;;;;;;19.08;66.62;101623.88;5091000;28;20036;-69
2023/09/28 08:13:38;;;;;;;23.45;4.75;;;;;;;19.13;65.77;101626.63;5094288;28;20116;-69
2023/09/28 08:16:04;;;;;;;12.68;3.63;;;;;;;19.22;65.66;101629.69;5095452;28;20118;-69
2023/09/28 08:18:29;;;;;;;17.17;3.88;;;;;;;19.20;65.96;101635.59;5111128;28;20031;-68
2023/09/28 08:20:57;;;;;;;20.15;4.30;;;;;;;19.27;64.98;101636.13;5106232;28;20412;-69
2023/09/28 08:23:22;;;;;;;21.20;4.18;;;;;;;19.38;64.98;101628.44;5091268;28;20040;-70
2023/09/28 08:25:50;;;;;;;17.40;3.80;;;;;;;19.44;64.26;101626.41;5093905;28;20032;-68
2023/09/28 08:28:15;;;;;;;20.75;3.80;;;;;;;19.47;64.29;101628.66;5096604;28;20044;-68
2023/09/28 08:30:41;;;;;;;19.75;3.90;;;;;;;19.57;64.28;101637.84;5099157;28;20028;-70
2023/09/28 08:33:08;;;;;;;24.27;4.13;;;;;;;19.66;64.28;101635.28;5090758;28;20035;-71
2023/09/28 08:35:35;;;;;;;20.38;4.40;;;;;;;19.60;63.13;101642.03;5091478;28;20031;-69
2023/09/28 08:38:01;;;;;;;17.73;4.32;;;;;;;19.66;62.92;101645.69;5089611;28;20110;-71
2023/09/28 08:40:26;;;;;;;18.50;4.07;;;;;;;19.64;62.96;101643.16;5089335;28;20484;-71
2023/09/28 08:42:55;;;;;;;23.10;4.53;;;;;;;19.57;63.02;101660.38;5096247;28;20169;-70
2023/09/28 08:45:23;;;;;;;17.38;4.45;;;;;;;19.54;63.18;101671.41;5088848;28;20482;-70
2023/09/28 08:47:53;;;;;;;20.10;4.53;;;;;;;19.51;62.97;101674.78;5103944;28;20039;-70
2023/09/28 08:50:23;;;;;;;20.65;4.57;;;;;;;19.48;63.31;101666.91;5098965;28;20024;-72
2023/09/28 08:52:50;;;;;;;22.45;4.35;;;;;;;19.47;63.11;101670.88;5097482;28;20039;-69
2023/09/28 08:55:17;;;;;;;19.17;5.35;;;;;;;19.52;62.76;101676.47;5092763;28;20090;-68
2023/09/28 08:57:43;;;;;;;21.25;4.65;;;;;;;19.61;62.31;101683.16;5092932;28;20038;-70
2023/09/28 09:00:13;;;;;;;18.70;5.28;;;;;;;19.57;61.93;101673.59;5091474;28;20084;-70
2023/09/28 09:02:42;;;;;;;20.58;5.60;;;;;;;19.57;62.57;101676.41;5093652;28;20531;-67
2023/09/28 09:05:08;;;;;;;20.42;5.45;;;;;;;19.51;61.98;101683.25;5093731;28;20028;-71
2023/09/28 09:07:36;;;;;;;16.33;5.18;;;;;;;19.49;61.94;101677.91;5092260;28;20516;-69
2023/09/28 09:10:01;;;;;;;21.35;5.30;;;;;;;19.48;62.33;101678.19;5091478;28;20032;-70
2023/09/28 09:12:32;;;;;;;18.63;5.30;;;;;;;19.56;62.70;101671.94;5095683;28;20028;-69
2023/09/28 09:14:58;;;;;;;22.55;5.35;;;;;;;19.59;62.73;101674.16;5090261;28;20039;-68
2023/09/28 09:17:33;;;;;;;20.83;5.20;;;;;;;19.63;62.71;101675.28;5090977;28;20020;-68
2023/09/28 09:20:05;;;;;;;22.27;5.05;;;;;;;19.69;61.84;101674.13;5095326;28;20016;-68
2023/09/28 09:22:33;;;;;;;23.88;5.15;;;;;;;19.72;61.88;101672.66;5093518;28;20032;-68
2023/09/28 09:24:58;;;;;;;24.38;5.05;;;;;;;19.74;61.30;101676.88;5093173;28;20432;-69
2023/09/28 09:27:31;;;;;;;20.58;4.68;;;;;;;19.82;61.49;101675.41;5091566;28;20068;-66
2023/09/28 09:30:08;;;;;;;20.25;4.57;;;;;;;19.80;61.38;101672.03;5089405;28;20869;-69
2023/09/28 09:32:34;;;;;;;19.20;4.47;;;;;;;19.79;60.37;101688.09;5089035;28;20116;-66
2023/09/28 09:35:00;;;;;;;25.65;4.70;;;;;;;19.80;60.35;101691.75;5090624;28;20084;-70
2023/09/28 09:37:28;;;;;;;16.50;4.53;;;;;;;19.76;60.35;101685.88;5095446;28;20395;-67
2023/09/28 09:40:10;;;;;;;19.13;4.22;;;;;;;19.80;60.60;101672.88;5088481;28;20024;-67
2023/09/28 09:42:39;;;;;;;20.40;4.40;;;;;;;19.86;59.95;101673.69;5098827;28;20375;-69
2023/09/28 09:45:05;;;;;;;20.20;4.25;;;;;;;19.98;59.26;101674.13;5095879;28;20023;-68
2023/09/28 09:47:34;;;;;;;15.07;3.97;;;;;;;20.07;59.41;101677.97;5098050;28;20028;-68
2023/09/28 09:50:01;;;;;;;23.75;4.20;;;;;;;20.16;59.36;101686.66;5097662;28;20028;-69
2023/09/28 09:52:28;;;;;;;18.10;4.20;;;;;;;20.16;59.23;101692.28;5093583;28;20035;-69
2023/09/28 09:54:53;;;;;;;22.38;4.30;;;;;;;20.10;59.30;101685.00;5094393;28;20479;-68
2023/09/28 09:57:20;;;;;;;16.50;4.22;;;;;;;20.06;59.32;101698.00;5098908;28;20066;-69
2023/09/28 09:59:49;;;;;;;19.55;3.80;;;;;;;20.05;59.14;101694.34;5100067;28;20031;-68
2023/09/28 10:02:23;;;;;;;28.00;4.47;;;;;;;20.16;59.53;101694.22;5096718;28;20070;-69
2023/09/28 10:04:55;;;;;;;21.05;4.35;;;;;;;20.19;59.05;101686.03;5101027;28;20049;-67
2023/09/28 10:07:26;;;;;;;16.77;3.88;;;;;;;20.27;59.73;101684.53;5096691;28;20510;-68
2023/09/28 10:09:56;;;;;;;16.38;4.10;;;;;;;20.45;59.38;101685.75;5093143;28;20483;-69
2023/09/28 10:12:23;;;;;;;16.88;3.95;;;;;;;20.62;59.77;101668.38;5097273;28;20048;-68
2023/09/28 10:14:48;;;;;;;15.13;3.88;;;;;;;20.74;58.40;101671.59;5095721;28;20039;-67
2023/09/28 10:17:14;;;;;;;17.95;3.70;;;;;;;20.84;57.87;101677.97;5092710;28;20024;-68
2023/09/28 10:19:40;;;;;;;17.27;4.40;;;;;;;20.87;57.05;101670.03;5092699;28;20044;-69
2023/09/28 10:22:06;;;;;;;17.90;4.03;;;;;;;20.88;57.84;101661.28;5095923;28;20162;-68
2023/09/28 10:24:32;;;;;;;19.85;4.35;;;;;;;21.10;59.96;101649.38;5090241;28;20130;-70
2023/09/28 10:27:08;;;;;;;25.98;23.23;;;;;;;21.36;58.32;101649.03;5098476;28;20035;-70
2023/09/28 10:29:34;;;;;;;16.73;4.80;;;;;;;21.36;55.50;101651.84;5090021;28;20130;-74
2023/09/28 10:32:01;;;;;;;16.00;3.85;;;;;;;21.40;55.53;101645.28;5094731;28;20692;-70
2023/09/28 10:34:27;;;;;;;11.25;3.80;;;;;;;21.49;55.32;101657.53;5099133;28;20482;-67
2023/09/28 10:37:18;;;;;;;14.82;3.65;;;;;;;21.73;57.87;101665.06;5093823;28;20052;-68
2023/09/28 10:39:47;;;;;;;15.05;3.63;;;;;;;21.70;54.45;101669.38;5097154;28;20036;-70
2023/09/28 10:42:16;;;;;;;14.38;3.42;;;;;;;21.74;53.93;101673.25;5092491;28;20042;-69
2023/09/28 10:44:56;;;;;;;15.48;3.67;;;;;;;21.69;54.99;101664.00;5091397;28;20119;-68
2023/09/28 10:47:23;;;;;;;14.27;3.58;;;;;;;21.69;53.65;101670.50;5093317;28;20035;-67
2023/09/28 10:49:57;;;;;;;15.48;3.97;;;;;;;21.69;54.71;101670.50;5097056;28;20039;-68
2023/09/28 10:52:23;;;;;;;13.30;3.10;;;;;;;21.70;54.36;101672.19;5088753;28;20052;-63
2023/09/28 10:54:49;;;;;;;12.00;3.63;;;;;;;21.71;55.02;101673.84;5094278;28;20134;-61
2023/09/28 10:57:17;;;;;;;17.10;3.83;;;;;;;21.73;54.37;101676.34;5095720;28;20099;-62
2023/09/28 10:59:42;;;;;;;13.88;3.50;;;;;;;21.68;54.34;101670.81;5094922;28;20532;-64
2023/09/28 11:02:09;;;;;;;19.58;3.65;;;;;;;21.65;54.28;101680.72;5095162;28;20031;-61
2023/09/28 11:04:37;;;;;;;19.85;3.75;;;;;;;21.60;54.98;101683.66;5096430;28;20200;-63
2023/09/28 11:07:05;;;;;;;14.40;3.30;;;;;;;21.55;54.30;101680.91;5092532;28;20486;-63
2023/09/28 11:09:31;;;;;;;17.50;3.63;;;;;;;21.48;54.59;101681.28;5088935;28;20024;-63
2023/09/28 11:11:56;;;;;;;14.90;3.67;;;;;;;21.45;55.01;101684.72;5090580;28;20360;-69
2023/09/28 11:14:25;;;;;;;18.40;3.40;;;;;;;21.39;54.82;101702.06;5090750;28;20035;-69
2023/09/28 11:16:52;;;;;;;18.08;3.67;;;;;;;21.33;55.02;101695.66;5094587;28;20047;-70
2023/09/28 11:19:18;;;;;;;14.93;3.45;;;;;;;21.33;55.36;101690.00;5097244;28;20012;-72
2023/09/28 11:21:44;;;;;;;18.05;3.72;;;;;;;21.32;55.62;101682.66;5091844;28;20509;-70